Terminal Aerodrome Forecast
Issued by NWS

Home | Current Version | Previous Version | Text Only | Print | Product List | Glossary On
Versions: 1 2 3 4 5 6 7 8 9 10 11 12 13 14 15 16 17 18
000
FTUS44 KBMX 231500 AAA
TAFMGM
TAF AMD
KMGM 231548Z 2316/2412 12012G18KT 4SM -SHRA VCTS OVC005CB
     FM231800 15012G20KT 4SM SHRA VCTS OVC008CB
      TEMPO 2318/2322 2SM TSRA
     FM232200 19010KT P6SM VCSH BKN025=

USA.gov is the U.S. government's official web portal to all federal, state and local government web resources and services.